createdAt,value
2023-01-02T00:06:08.284Z,19.60
2023-01-02T00:21:12.648Z,22.40
2023-01-02T00:36:17.509Z,20.27
2023-01-02T00:51:21.689Z,19.97
2023-01-02T01:06:26.089Z,19.30
2023-01-02T01:21:30.485Z,19.47
2023-01-02T01:36:37.221Z,19.30
2023-01-02T01:51:53.399Z,20.20
2023-01-02T02:06:58.156Z,19.70
2023-01-02T02:22:20.366Z,22.20
2023-01-02T02:37:35.193Z,23.70
2023-01-02T02:52:46.399Z,23.00
2023-01-02T03:07:54.303Z,24.07
2023-01-02T03:23:01.759Z,21.87
2023-01-02T03:38:08.997Z,22.47
2023-01-02T03:53:14.001Z,22.03
2023-01-02T04:08:26.227Z,20.33
2023-01-02T04:23:51.698Z,17.70
2023-01-02T04:38:55.816Z,16.60
2023-01-02T04:54:00.395Z,18.07
2023-01-02T05:09:04.629Z,20.60
2023-01-02T05:24:09.001Z,21.80
2023-01-02T05:39:14.446Z,22.83
2023-01-02T05:54:19.145Z,22.70
2023-01-02T06:09:23.519Z,21.80
2023-01-02T06:24:28.679Z,20.47
2023-01-02T06:39:33.890Z,22.43
2023-01-02T06:54:37.999Z,22.17
2023-01-02T07:09:42.282Z,30.10
2023-01-02T07:24:46.457Z,43.27
2023-01-02T07:39:50.611Z,51.53
2023-01-02T07:54:55.000Z,51.90
2023-01-02T08:09:59.472Z,55.80
2023-01-02T08:25:04.588Z,52.53
2023-01-02T08:40:08.991Z,57.10
2023-01-02T08:55:14.250Z,54.53
2023-01-02T09:10:18.645Z,52.27
2023-01-02T09:25:24.508Z,53.53
2023-01-02T09:40:29.857Z,45.50
2023-01-02T09:55:34.453Z,34.13
2023-01-02T10:10:45.683Z,37.40
2023-01-02T10:25:55.275Z,43.53
2023-01-02T10:41:00.834Z,45.00
2023-01-02T10:56:21.342Z,46.77
2023-01-02T11:11:27.187Z,44.07
2023-01-02T11:26:32.671Z,41.30
2023-01-02T11:41:56.253Z,44.30
2023-01-02T11:57:01.064Z,40.20
2023-01-02T12:12:05.148Z,42.83
2023-01-02T12:27:27.366Z,42.47
2023-01-02T12:42:34.113Z,44.40
2023-01-02T12:57:38.681Z,40.73
2023-01-02T13:12:44.075Z,38.33
2023-01-02T13:27:50.026Z,36.03
2023-01-02T13:43:01.290Z,38.73
2023-01-02T13:58:14.962Z,32.60
2023-01-02T14:13:22.201Z,29.60
2023-01-02T14:28:27.374Z,32.73
2023-01-02T14:43:37.206Z,33.67
2023-01-02T14:58:42.785Z,33.40
2023-01-02T15:14:05.676Z,29.90
2023-01-02T15:29:34.246Z,32.37
2023-01-02T15:44:58.194Z,30.80
2023-01-02T16:00:02.518Z,21.63
2023-01-02T16:15:11.202Z,23.13
2023-01-02T16:30:37.415Z,21.93
2023-01-02T16:45:42.285Z,21.50
2023-01-02T17:00:50.023Z,25.10
2023-01-02T17:15:57.359Z,24.17
2023-01-02T17:31:04.337Z,25.27
2023-01-02T17:46:38.655Z,26.50
2023-01-02T18:01:34.838Z,26.40
2023-01-02T18:16:43.310Z,28.87
2023-01-02T18:31:47.830Z,34.53
2023-01-02T18:47:12.922Z,42.73
2023-01-02T19:02:35.132Z,27.43
2023-01-02T19:17:49.169Z,22.60
2023-01-02T19:32:58.913Z,22.70
2023-01-02T19:48:09.317Z,20.33
2023-01-02T20:03:18.553Z,20.40
2023-01-02T20:18:25.542Z,21.60
2023-01-02T20:33:29.818Z,23.03
2023-01-02T20:48:34.613Z,23.50
2023-01-02T21:03:38.667Z,20.00
2023-01-02T21:18:42.969Z,22.53
2023-01-02T21:33:47.645Z,20.13
2023-01-02T21:48:51.876Z,22.73
2023-01-02T22:03:57.985Z,23.40
2023-01-02T22:19:02.713Z,25.57
2023-01-02T22:34:07.127Z,26.03
2023-01-02T22:49:16.025Z,22.67
2023-01-02T23:04:25.419Z,24.87
2023-01-02T23:19:29.722Z,23.30
2023-01-02T23:34:33.875Z,22.50
2023-01-02T23:49:38.818Z,23.10
